createdAt,value
2019-02-26T00:00:56.473Z,7.60
2019-02-26T00:03:26.272Z,7.60
2019-02-26T00:05:54.261Z,7.60
2019-02-26T00:08:21.848Z,7.50
2019-02-26T00:10:50.166Z,7.40
2019-02-26T00:13:20.222Z,7.20
2019-02-26T00:15:48.321Z,7.20
2019-02-26T00:18:21.369Z,7.10
2019-02-26T00:20:47.647Z,7.10
2019-02-26T00:23:15.661Z,7.10
2019-02-26T00:25:41.800Z,7.10
2019-02-26T00:28:08.053Z,7.10
2019-02-26T00:30:37.913Z,7.10
2019-02-26T00:33:05.412Z,7.00
2019-02-26T00:35:31.525Z,7.00
2019-02-26T00:38:01.592Z,6.90
2019-02-26T00:40:27.665Z,6.90
2019-02-26T00:42:55.020Z,6.80
2019-02-26T00:45:26.942Z,6.80
2019-02-26T00:47:50.764Z,6.90
2019-02-26T00:50:18.060Z,6.90
2019-02-26T00:52:44.163Z,6.90
2019-02-26T00:55:12.433Z,6.80
2019-02-26T00:57:40.675Z,6.80
2019-02-26T01:00:12.362Z,6.80
2019-02-26T01:02:38.666Z,6.70
2019-02-26T01:05:10.804Z,6.70
2019-02-26T01:07:37.226Z,6.60
2019-02-26T01:10:07.633Z,6.70
2019-02-26T01:12:37.668Z,6.60
2019-02-26T01:15:11.576Z,6.60
2019-02-26T01:17:40.115Z,6.50
2019-02-26T01:20:09.466Z,6.50
2019-02-26T01:22:37.750Z,6.50
2019-02-26T01:25:10.107Z,6.50
2019-02-26T01:27:36.189Z,6.50
2019-02-26T01:30:08.337Z,6.60
2019-02-26T01:32:34.396Z,6.60
2019-02-26T01:35:03.298Z,6.60
2019-02-26T01:37:32.042Z,6.60
2019-02-26T01:39:59.307Z,6.50
2019-02-26T01:42:27.178Z,6.40
2019-02-26T01:44:55.695Z,6.30
2019-02-26T01:47:24.166Z,6.20
2019-02-26T01:49:52.119Z,6.20
2019-02-26T01:52:18.180Z,6.10
2019-02-26T01:54:44.226Z,6.10
2019-02-26T01:57:10.380Z,6.10
2019-02-26T01:59:36.427Z,6.10
2019-02-26T02:02:04.547Z,6.10
2019-02-26T02:04:32.101Z,6.00
2019-02-26T02:06:59.702Z,6.00
2019-02-26T02:09:28.843Z,5.90
2019-02-26T02:11:57.417Z,5.90
2019-02-26T02:14:23.867Z,5.80
2019-02-26T02:16:50.207Z,5.70
2019-02-26T02:19:20.861Z,5.70
2019-02-26T02:21:49.334Z,5.70
2019-02-26T02:24:17.379Z,5.80
2019-02-26T02:26:49.793Z,5.70
2019-02-26T02:29:16.612Z,5.90
2019-02-26T02:31:43.330Z,5.90
2019-02-26T02:34:12.150Z,5.80
2019-02-26T02:36:38.220Z,5.80
2019-02-26T02:39:10.344Z,5.70
2019-02-26T02:41:35.284Z,5.80
2019-02-26T02:44:01.420Z,5.80
2019-02-26T02:46:30.904Z,5.80
2019-02-26T02:48:57.342Z,5.80
2019-02-26T02:51:28.023Z,5.80
2019-02-26T02:53:56.669Z,5.70
2019-02-26T02:56:23.204Z,5.70
2019-02-26T02:58:51.696Z,5.70
2019-02-26T03:01:20.416Z,5.70
2019-02-26T03:03:50.520Z,5.60
2019-02-26T03:06:16.684Z,5.70
2019-02-26T03:08:45.116Z,5.60
2019-02-26T03:11:11.536Z,5.60
2019-02-26T03:13:40.241Z,5.50
2019-02-26T03:16:06.064Z,5.50
2019-02-26T03:18:32.143Z,5.50
2019-02-26T03:20:59.988Z,5.40
2019-02-26T03:23:27.098Z,5.40
2019-02-26T03:25:55.105Z,5.30
2019-02-26T03:28:21.507Z,5.30
2019-02-26T03:30:52.035Z,5.30
2019-02-26T03:33:21.209Z,5.30
2019-02-26T03:35:48.039Z,5.20
2019-02-26T03:38:15.291Z,5.20
2019-02-26T03:40:42.491Z,5.20
2019-02-26T03:43:10.863Z,5.20
2019-02-26T03:45:37.923Z,5.20
2019-02-26T03:48:04.791Z,5.10
2019-02-26T03:50:32.494Z,5.00
2019-02-26T03:52:58.802Z,5.00
2019-02-26T03:55:24.932Z,5.10
2019-02-26T03:57:56.003Z,5.10
2019-02-26T04:00:21.159Z,5.10
2019-02-26T04:02:49.058Z,5.00
2019-02-26T04:05:22.135Z,5.00
2019-02-26T04:07:51.686Z,4.90
2019-02-26T04:10:16.952Z,4.90
2019-02-26T04:12:45.052Z,4.90
2019-02-26T04:15:18.743Z,4.90
2019-02-26T04:17:44.839Z,4.90
2019-02-26T04:20:12.634Z,4.90
2019-02-26T04:22:49.889Z,5.10
2019-02-26T04:25:27.228Z,5.00
2019-02-26T04:28:10.825Z,5.00
2019-02-26T04:30:57.963Z,4.90
2019-02-26T04:33:41.483Z,4.90
2019-02-26T04:36:23.241Z,5.10
2019-02-26T04:39:26.426Z,5.10
2019-02-26T04:42:26.815Z,5.10
2019-02-26T04:45:09.185Z,5.10
2019-02-26T04:48:00.552Z,5.00
2019-02-26T04:50:28.625Z,4.90
2019-02-26T04:52:58.321Z,4.90
2019-02-26T04:55:21.871Z,4.90
2019-02-26T04:57:53.995Z,4.80
2019-02-26T05:00:20.427Z,4.80
2019-02-26T05:02:46.605Z,4.80
2019-02-26T05:05:14.036Z,4.70
2019-02-26T05:07:46.518Z,4.70
2019-02-26T05:10:26.413Z,4.60
2019-02-26T05:12:56.200Z,4.60
2019-02-26T05:15:23.289Z,4.50
2019-02-26T05:17:51.606Z,4.50
2019-02-26T05:20:19.003Z,4.50
2019-02-26T05:22:45.187Z,4.60
2019-02-26T05:25:19.187Z,4.60
2019-02-26T05:27:47.490Z,4.60
2019-02-26T05:30:15.592Z,4.50
2019-02-26T05:32:40.570Z,4.50
2019-02-26T05:35:06.677Z,4.60
2019-02-26T05:37:35.356Z,4.60
2019-02-26T05:40:00.780Z,4.50
2019-02-26T05:42:28.847Z,4.60
2019-02-26T05:44:57.402Z,4.70
2019-02-26T05:47:26.129Z,4.70
2019-02-26T05:49:52.053Z,4.60
2019-02-26T05:52:18.113Z,4.60
2019-02-26T05:54:44.407Z,4.60
2019-02-26T05:57:25.656Z,4.60
2019-02-26T05:59:42.481Z,4.60
2019-02-26T06:02:11.318Z,4.60
2019-02-26T06:04:43.888Z,4.50
2019-02-26T06:07:09.149Z,4.50
2019-02-26T06:09:39.112Z,4.80
2019-02-26T06:12:05.925Z,4.70
2019-02-26T06:14:33.249Z,4.60
2019-02-26T06:17:01.331Z,4.50
2019-02-26T06:19:42.948Z,4.40
2019-02-26T06:22:14.492Z,4.40
2019-02-26T06:24:38.303Z,4.40
2019-02-26T06:27:08.633Z,4.50
2019-02-26T06:29:38.980Z,4.50
2019-02-26T06:32:13.034Z,4.50
2019-02-26T06:34:40.161Z,4.50
2019-02-26T06:37:16.400Z,4.40
2019-02-26T06:39:43.014Z,4.50
2019-02-26T06:42:12.044Z,4.50
2019-02-26T06:44:41.281Z,4.40
2019-02-26T06:47:06.894Z,4.50
2019-02-26T06:49:34.492Z,4.50
2019-02-26T06:52:00.659Z,4.60
2019-02-26T06:54:28.923Z,4.60
2019-02-26T06:56:55.123Z,4.70
2019-02-26T06:59:33.855Z,4.60
2019-02-26T07:01:58.921Z,4.60
2019-02-26T07:04:27.052Z,4.50
2019-02-26T07:06:55.167Z,4.50
2019-02-26T07:09:22.106Z,4.50
2019-02-26T07:11:49.029Z,4.50
2019-02-26T07:14:15.260Z,4.60
2019-02-26T07:16:41.843Z,4.60
2019-02-26T07:19:09.118Z,4.70
2019-02-26T07:21:37.997Z,4.70
2019-02-26T07:24:07.751Z,4.70
2019-02-26T07:26:36.167Z,4.80
2019-02-26T07:29:03.450Z,4.90
2019-02-26T07:31:33.626Z,5.00
2019-02-26T07:34:03.179Z,5.00
2019-02-26T07:36:29.415Z,5.10
2019-02-26T07:38:56.592Z,5.20
2019-02-26T07:41:23.633Z,5.20
2019-02-26T07:43:54.091Z,5.30
2019-02-26T07:46:21.492Z,5.30
2019-02-26T07:48:53.959Z,5.50
2019-02-26T07:51:19.597Z,5.50
2019-02-26T07:53:50.576Z,5.60
2019-02-26T07:56:13.937Z,5.60
2019-02-26T07:58:42.954Z,5.70
2019-02-26T08:01:12.299Z,5.70
2019-02-26T08:03:38.370Z,5.80
2019-02-26T08:06:06.750Z,6.00
2019-02-26T08:08:33.904Z,6.00
2019-02-26T08:11:01.959Z,6.10
2019-02-26T08:13:31.569Z,6.30
2019-02-26T08:15:59.615Z,6.30
2019-02-26T08:18:25.568Z,6.30
2019-02-26T08:20:55.536Z,6.40
2019-02-26T08:23:22.060Z,6.50
2019-02-26T08:25:52.275Z,6.60
2019-02-26T08:28:20.815Z,6.80
2019-02-26T08:30:47.910Z,6.90
2019-02-26T08:33:15.432Z,6.80
2019-02-26T08:35:41.569Z,7.00
2019-02-26T08:38:07.779Z,7.10
2019-02-26T08:40:35.282Z,7.20
2019-02-26T08:43:02.803Z,7.40
2019-02-26T08:45:30.939Z,7.40
2019-02-26T08:48:00.929Z,7.50
2019-02-26T08:50:33.081Z,7.50
2019-02-26T08:52:58.657Z,7.60
2019-02-26T08:55:25.908Z,7.70
2019-02-26T08:57:54.049Z,7.90
2019-02-26T09:00:21.572Z,8.10
2019-02-26T09:02:56.719Z,8.20
2019-02-26T09:05:25.442Z,8.20
2019-02-26T09:07:51.320Z,8.30
2019-02-26T09:10:20.325Z,8.30
2019-02-26T09:12:48.580Z,8.40
2019-02-26T09:15:20.437Z,8.40
2019-02-26T09:17:46.755Z,8.60
2019-02-26T09:20:15.470Z,8.60
2019-02-26T09:22:48.006Z,8.60
2019-02-26T09:25:23.241Z,8.70
2019-02-26T09:27:44.396Z,8.70
2019-02-26T09:30:15.958Z,8.80
2019-02-26T09:32:44.599Z,9.00
2019-02-26T09:35:20.398Z,9.20
2019-02-26T09:37:50.211Z,9.30
2019-02-26T09:40:23.106Z,9.40
2019-02-26T09:42:51.704Z,9.50
2019-02-26T09:45:23.667Z,9.60
2019-02-26T09:47:51.994Z,9.80
2019-02-26T09:50:19.912Z,9.80
2019-02-26T09:52:50.290Z,9.80
2019-02-26T09:55:17.792Z,9.90
2019-02-26T09:58:04.094Z,10.00
2019-02-26T10:00:30.572Z,10.10
2019-02-26T10:02:58.689Z,10.30
2019-02-26T10:05:24.679Z,10.40
2019-02-26T10:07:54.335Z,10.50
2019-02-26T10:10:25.391Z,10.60
2019-02-26T10:12:53.756Z,10.70
2019-02-26T10:15:19.518Z,10.70
2019-02-26T10:17:46.911Z,10.70
2019-02-26T10:20:24.773Z,10.90
2019-02-26T10:22:57.812Z,11.10
2019-02-26T10:25:23.448Z,11.40
2019-02-26T10:27:54.299Z,11.50
2019-02-26T10:30:21.955Z,11.80
2019-02-26T10:32:49.409Z,11.90
2019-02-26T10:35:25.629Z,12.00
2019-02-26T10:37:53.406Z,12.10
2019-02-26T10:40:20.220Z,12.20
2019-02-26T10:42:47.864Z,12.20
2019-02-26T10:45:16.462Z,12.30
2019-02-26T10:47:43.233Z,12.50
2019-02-26T10:50:16.235Z,12.60
2019-02-26T10:52:41.847Z,12.70
2019-02-26T10:55:12.789Z,12.90
2019-02-26T10:57:38.506Z,13.00
2019-02-26T11:00:10.863Z,13.20
2019-02-26T11:02:36.756Z,13.50
2019-02-26T11:05:08.649Z,13.70
2019-02-26T11:07:40.461Z,13.80
2019-02-26T11:10:08.789Z,14.00
2019-02-26T11:12:34.837Z,14.20
2019-02-26T11:15:11.573Z,14.30
2019-02-26T11:17:37.722Z,14.40
2019-02-26T11:20:10.206Z,14.50
2019-02-26T11:22:36.287Z,14.60
2019-02-26T11:25:05.398Z,14.80
2019-02-26T11:27:31.432Z,14.90
2019-02-26T11:29:59.476Z,14.90
2019-02-26T11:32:28.244Z,15.00
2019-02-26T11:34:55.745Z,15.30
2019-02-26T11:37:24.922Z,15.30
2019-02-26T11:39:52.725Z,15.50
2019-02-26T11:42:23.188Z,15.60
2019-02-26T11:44:50.667Z,15.80
2019-02-26T11:47:18.410Z,15.90
2019-02-26T11:49:46.634Z,16.10
2019-02-26T11:52:12.830Z,16.20
2019-02-26T11:54:40.204Z,16.40
2019-02-26T11:57:10.149Z,16.50
2019-02-26T11:59:38.566Z,16.70
2019-02-26T12:02:06.379Z,16.80
2019-02-26T12:04:32.665Z,17.00
2019-02-26T12:07:01.039Z,17.10
2019-02-26T12:09:32.986Z,17.30
2019-02-26T12:12:00.812Z,17.50
2019-02-26T12:14:27.084Z,17.60
2019-02-26T12:16:59.623Z,17.60
2019-02-26T12:19:28.196Z,17.60
2019-02-26T12:21:57.453Z,17.70
2019-02-26T12:24:28.891Z,17.80
2019-02-26T12:26:55.703Z,17.80
2019-02-26T12:29:23.594Z,17.80
2019-02-26T12:31:58.341Z,18.00
2019-02-26T12:34:26.015Z,18.20
2019-02-26T12:36:53.723Z,18.30
2019-02-26T12:39:22.237Z,18.40
2019-02-26T12:41:51.871Z,18.50
2019-02-26T12:44:17.998Z,18.60
2019-02-26T12:46:44.956Z,18.70
2019-02-26T12:49:18.000Z,18.80
2019-02-26T12:51:45.195Z,18.90
2019-02-26T12:54:15.556Z,19.00
2019-02-26T12:56:42.359Z,19.30
2019-02-26T12:59:08.561Z,19.30
2019-02-26T13:01:39.534Z,19.30
2019-02-26T13:04:09.455Z,19.40
2019-02-26T13:06:40.532Z,19.60
2019-02-26T13:09:07.215Z,19.70
2019-02-26T13:11:33.890Z,19.90
2019-02-26T13:14:05.131Z,20.10
2019-02-26T13:16:32.961Z,20.40
2019-02-26T13:19:04.308Z,20.70
2019-02-26T13:21:28.395Z,20.80
2019-02-26T13:23:58.648Z,20.80
2019-02-26T13:26:23.905Z,21.10
2019-02-26T13:28:56.155Z,21.10
2019-02-26T13:31:22.550Z,21.20
2019-02-26T13:33:49.432Z,21.40
2019-02-26T13:36:17.128Z,21.50
2019-02-26T13:38:48.299Z,21.70
2019-02-26T13:41:29.034Z,21.90
2019-02-26T13:43:40.416Z,21.90
2019-02-26T13:46:06.672Z,21.70
2019-02-26T13:48:33.003Z,21.60
2019-02-26T13:51:01.734Z,21.60
2019-02-26T13:53:29.963Z,21.70
2019-02-26T13:55:58.148Z,21.70
2019-02-26T13:58:24.299Z,21.70
2019-02-26T14:00:52.582Z,21.70
2019-02-26T14:03:19.763Z,21.70
2019-02-26T14:05:45.957Z,21.80
2019-02-26T14:08:14.473Z,21.80
2019-02-26T14:10:40.503Z,21.90
2019-02-26T14:13:08.007Z,22.00
2019-02-26T14:15:35.720Z,22.10
2019-02-26T14:18:02.292Z,22.10
2019-02-26T14:20:29.559Z,22.10
2019-02-26T14:22:55.745Z,22.20
2019-02-26T14:25:21.817Z,22.30
2019-02-26T14:27:47.875Z,22.30
2019-02-26T14:30:19.749Z,22.40
2019-02-26T14:32:46.131Z,22.60
2019-02-26T14:35:15.139Z,22.60
2019-02-26T14:37:43.538Z,22.50
2019-02-26T14:40:16.820Z,22.60
2019-02-26T14:42:45.878Z,22.60
2019-02-26T14:45:14.969Z,22.60
2019-02-26T14:47:41.059Z,22.60
2019-02-26T14:50:11.042Z,22.70
2019-02-26T14:52:37.386Z,22.70
2019-02-26T14:55:04.579Z,22.70
2019-02-26T14:57:30.681Z,22.80
2019-02-26T14:59:56.907Z,22.80
2019-02-26T15:02:23.100Z,22.90
2019-02-26T15:04:51.220Z,23.00
2019-02-26T15:07:17.322Z,23.20
2019-02-26T15:09:43.367Z,23.40
2019-02-26T15:12:09.448Z,23.70
2019-02-26T15:14:35.513Z,23.80
2019-02-26T15:17:01.657Z,23.70
2019-02-26T15:19:29.600Z,23.70
2019-02-26T15:21:57.218Z,23.60
2019-02-26T15:24:23.531Z,23.40
2019-02-26T15:26:50.392Z,23.50
2019-02-26T15:29:18.891Z,23.40
2019-02-26T15:31:48.424Z,23.10
2019-02-26T15:34:14.760Z,22.80
2019-02-26T15:36:42.796Z,22.60
2019-02-26T15:39:09.187Z,22.30
2019-02-26T15:41:38.403Z,22.00
2019-02-26T15:44:04.448Z,21.80
2019-02-26T15:46:30.867Z,21.70
2019-02-26T15:48:59.308Z,21.70
2019-02-26T15:51:26.469Z,21.40
2019-02-26T15:53:55.296Z,21.30
2019-02-26T15:56:20.541Z,21.00
2019-02-26T15:58:46.798Z,20.80
2019-02-26T16:01:15.183Z,20.80
2019-02-26T16:03:42.137Z,20.80
2019-02-26T16:06:08.234Z,20.70
2019-02-26T16:08:34.838Z,20.90
2019-02-26T16:11:01.224Z,21.50
2019-02-26T16:13:27.333Z,22.00
2019-02-26T16:15:56.616Z,22.40
2019-02-26T16:18:24.722Z,22.70
2019-02-26T16:20:55.114Z,23.10
2019-02-26T16:23:21.269Z,23.60
2019-02-26T16:25:48.694Z,24.30
2019-02-26T16:28:14.716Z,24.90
2019-02-26T16:30:40.859Z,25.30
2019-02-26T16:33:11.259Z,25.50
2019-02-26T16:35:37.861Z,25.60
2019-02-26T16:38:05.849Z,25.70
2019-02-26T16:40:36.414Z,25.80
2019-02-26T16:43:03.256Z,25.60
2019-02-26T16:45:34.424Z,25.60
2019-02-26T16:47:57.557Z,25.50
2019-02-26T16:50:26.442Z,25.40
2019-02-26T16:52:52.819Z,25.20
2019-02-26T16:55:19.319Z,24.70
2019-02-26T16:57:46.023Z,23.90
2019-02-26T17:00:20.901Z,23.20
2019-02-26T17:02:48.560Z,22.60
2019-02-26T17:05:17.881Z,22.10
2019-02-26T17:07:47.549Z,21.60
2019-02-26T17:10:16.571Z,21.00
2019-02-26T17:12:46.265Z,20.50
2019-02-26T17:15:17.467Z,20.10
2019-02-26T17:17:44.793Z,19.70
2019-02-26T17:20:11.041Z,19.40
2019-02-26T17:22:38.426Z,19.10
2019-02-26T17:25:06.981Z,18.80
2019-02-26T17:27:33.484Z,18.60
2019-02-26T17:29:59.497Z,18.40
2019-02-26T17:32:27.456Z,18.20
2019-02-26T17:34:55.547Z,17.90
2019-02-26T17:37:25.741Z,17.60
2019-02-26T17:39:49.994Z,17.30
2019-02-26T17:42:17.880Z,17.20
2019-02-26T17:44:44.521Z,17.10
2019-02-26T17:47:10.849Z,16.90
2019-02-26T17:49:37.180Z,16.70
2019-02-26T17:52:03.390Z,16.50
2019-02-26T17:54:29.744Z,16.40
2019-02-26T17:57:00.369Z,16.30
2019-02-26T17:59:26.493Z,16.30
2019-02-26T18:01:52.910Z,16.00
2019-02-26T18:04:22.695Z,15.90
2019-02-26T18:06:47.651Z,15.80
2019-02-26T18:09:14.169Z,15.60
2019-02-26T18:11:42.308Z,15.40
2019-02-26T18:14:10.475Z,15.20
2019-02-26T18:16:37.854Z,15.00
2019-02-26T18:19:05.960Z,14.80
2019-02-26T18:21:32.182Z,14.60
2019-02-26T18:23:58.198Z,14.50
2019-02-26T18:26:27.236Z,14.50
2019-02-26T18:28:53.474Z,14.50
2019-02-26T18:31:26.446Z,14.50
2019-02-26T18:33:49.035Z,14.40
2019-02-26T18:36:15.307Z,14.30
2019-02-26T18:38:42.638Z,14.30
2019-02-26T18:41:08.732Z,14.20
2019-02-26T18:43:35.221Z,14.00
2019-02-26T18:46:01.397Z,14.00
2019-02-26T18:48:27.652Z,13.90
2019-02-26T18:50:54.504Z,13.90
2019-02-26T18:53:25.264Z,13.70
2019-02-26T18:55:51.532Z,13.70
2019-02-26T18:58:19.283Z,13.50
2019-02-26T19:00:46.031Z,13.40
2019-02-26T19:03:12.336Z,13.30
2019-02-26T19:05:40.378Z,13.20
2019-02-26T19:08:06.812Z,13.20
2019-02-26T19:10:34.263Z,13.20
2019-02-26T19:13:03.703Z,13.20
2019-02-26T19:15:32.670Z,13.20
2019-02-26T19:18:01.905Z,13.20
2019-02-26T19:20:32.363Z,13.10
2019-02-26T19:22:59.528Z,13.00
2019-02-26T19:25:31.242Z,13.00
2019-02-26T19:27:57.379Z,12.90
2019-02-26T19:30:23.485Z,12.90
2019-02-26T19:32:51.727Z,12.90
2019-02-26T19:35:17.778Z,12.70
2019-02-26T19:37:49.121Z,12.60
2019-02-26T19:40:19.035Z,12.60
2019-02-26T19:42:45.908Z,12.40
2019-02-26T19:45:12.619Z,12.30
2019-02-26T19:47:38.979Z,12.30
2019-02-26T19:50:11.688Z,12.20
2019-02-26T19:52:37.918Z,12.20
2019-02-26T19:55:12.905Z,12.10
2019-02-26T19:57:43.645Z,12.10
2019-02-26T20:00:12.551Z,12.10
2019-02-26T20:02:38.756Z,12.00
2019-02-26T20:05:12.836Z,11.90
2019-02-26T20:07:39.446Z,11.90
2019-02-26T20:10:15.161Z,11.80
2019-02-26T20:12:42.217Z,11.80
2019-02-26T20:15:10.264Z,11.70
2019-02-26T20:17:37.965Z,11.70
2019-02-26T20:20:07.444Z,11.60
2019-02-26T20:22:33.546Z,11.50
2019-02-26T20:25:01.008Z,11.50
2019-02-26T20:27:28.134Z,11.50
2019-02-26T20:29:55.686Z,11.50
2019-02-26T20:32:21.716Z,11.50
2019-02-26T20:34:50.348Z,11.40
2019-02-26T20:37:16.673Z,11.30
2019-02-26T20:39:44.194Z,11.30
2019-02-26T20:42:13.058Z,11.20
2019-02-26T20:44:43.449Z,11.20
2019-02-26T20:47:09.508Z,11.10
2019-02-26T20:49:35.658Z,11.10
2019-02-26T20:52:03.272Z,11.20
2019-02-26T20:54:29.482Z,11.10
2019-02-26T20:56:58.028Z,11.20
2019-02-26T20:59:24.383Z,11.10
2019-02-26T21:01:50.699Z,11.10
2019-02-26T21:04:16.861Z,11.00
2019-02-26T21:06:42.968Z,10.90
2019-02-26T21:09:09.435Z,10.80
2019-02-26T21:11:35.444Z,10.80
2019-02-26T21:14:03.239Z,10.70
2019-02-26T21:16:30.341Z,10.70
2019-02-26T21:19:02.693Z,10.60
2019-02-26T21:21:30.980Z,10.50
2019-02-26T21:24:00.936Z,10.40
2019-02-26T21:26:29.168Z,10.40
2019-02-26T21:28:56.547Z,10.40
2019-02-26T21:31:26.962Z,10.40
2019-02-26T21:33:53.175Z,10.30
2019-02-26T21:36:19.295Z,10.30
2019-02-26T21:38:45.552Z,10.20
2019-02-26T21:41:12.588Z,10.20
2019-02-26T21:43:38.879Z,10.20
2019-02-26T21:46:05.043Z,10.10
2019-02-26T21:48:36.326Z,10.10
2019-02-26T21:51:01.307Z,10.00
2019-02-26T21:53:31.701Z,10.00
2019-02-26T21:55:55.756Z,10.00
2019-02-26T21:58:22.153Z,10.00
2019-02-26T22:00:48.276Z,9.90
2019-02-26T22:03:17.646Z,9.90
2019-02-26T22:05:43.653Z,9.90
2019-02-26T22:08:09.700Z,9.80
2019-02-26T22:10:36.244Z,9.80
2019-02-26T22:13:02.370Z,9.70
2019-02-26T22:15:31.670Z,9.70
2019-02-26T22:17:58.936Z,9.70
2019-02-26T22:20:35.884Z,9.70
2019-02-26T22:22:53.141Z,9.60
2019-02-26T22:25:22.281Z,9.60
2019-02-26T22:27:51.241Z,9.50
2019-02-26T22:30:21.555Z,9.50
2019-02-26T22:32:46.274Z,9.50
2019-02-26T22:35:12.672Z,9.50
2019-02-26T22:37:43.127Z,9.40
2019-02-26T22:40:10.690Z,9.40
2019-02-26T22:42:38.864Z,9.40
2019-02-26T22:45:07.768Z,9.30
2019-02-26T22:47:40.118Z,9.30
2019-02-26T22:50:09.547Z,9.20
2019-02-26T22:52:36.226Z,9.20
2019-02-26T22:55:04.408Z,9.10
2019-02-26T22:57:33.730Z,9.20
2019-02-26T22:59:59.839Z,9.10
2019-02-26T23:02:28.511Z,9.10
2019-02-26T23:04:54.672Z,9.10
2019-02-26T23:07:21.028Z,9.00
2019-02-26T23:09:52.193Z,9.00
2019-02-26T23:12:23.393Z,8.90
2019-02-26T23:14:49.729Z,8.90
2019-02-26T23:17:15.932Z,8.90
2019-02-26T23:19:43.522Z,8.90
2019-02-26T23:22:11.059Z,8.80
2019-02-26T23:24:37.204Z,8.80
2019-02-26T23:27:03.929Z,8.70
2019-02-26T23:29:30.239Z,8.70
2019-02-26T23:31:56.398Z,8.60
2019-02-26T23:34:23.813Z,8.60
2019-02-26T23:36:50.073Z,8.60
2019-02-26T23:39:17.058Z,8.50
2019-02-26T23:41:43.119Z,8.40
2019-02-26T23:44:10.573Z,8.40
2019-02-26T23:46:36.801Z,8.40
2019-02-26T23:49:03.248Z,8.40
2019-02-26T23:51:29.359Z,8.40
2019-02-26T23:53:55.670Z,8.40
2019-02-26T23:56:21.695Z,8.30
2019-02-26T23:58:48.968Z,8.30
